Terminal Aerodrome Forecast
Issued by NWS Springfield, MO

Home | Current Version | Previous Version | Text Only | Print | Product List | Glossary On
Versions: 1 2 3 4 5 6 7 8 9 10 11 12 13 14 15 16 17 18 19 20 21 22 23 24
784
FTUS43 KSGF 241720
TAFSGF
TAF
KSGF 241720Z 2418/2518 35008KT P6SM SKC
     FM250200 VRB04KT P6SM SCT250
     FM250800 VRB04KT P6SM OVC100
     FM251200 VRB04KT 6SM -RA BR OVC035
      TEMPO 2515/2518 4SM -RA BR OVC015=

USA.gov is the U.S. government's official web portal to all federal, state and local government web resources and services.